Time;durP1;ratioP1;P1;durP2;ratioP2;P2;SDS_P1;SDS_P2;PMS_P1;PMS_P2;Temp;Humidity;BMP_temperature;BMP_pressure;BME280_temperature;BME280_humidity;BME280_pressure;Samples;Min_cycle;Max_cycle;Signal;HPM_P1;HPM_P2
2022/08/01 00:00:38;;;;;;;6.07;4.78;;;;;;;19.59;55.18;98940.84;4972009;28;20043;-80
2022/08/01 00:03:04;;;;;;;7.60;4.95;;;;;;;19.47;55.47;98947.78;4955681;29;20110;-77
2022/08/01 00:05:30;;;;;;;7.47;4.50;;;;;;;19.39;55.44;98939.75;4956638;28;20138;-79
2022/08/01 00:07:56;;;;;;;7.63;4.80;;;;;;;19.35;55.74;98944.72;4955690;29;20414;-77
2022/08/01 00:10:23;;;;;;;8.25;4.90;;;;;;;19.12;56.53;98949.41;4971617;28;20051;-76
2022/08/01 00:12:48;;;;;;;5.30;4.80;;;;;;;19.04;56.16;98947.66;4955920;29;20047;-79
2022/08/01 00:15:17;;;;;;;5.47;4.60;;;;;;;19.03;56.66;98958.66;4971566;28;20454;-78
2022/08/01 00:17:43;;;;;;;9.30;5.28;;;;;;;18.80;57.04;98942.47;4956674;28;20054;-78
2022/08/01 00:20:12;;;;;;;10.30;4.80;;;;;;;18.77;57.35;98951.84;4939347;29;20035;-77
2022/08/01 00:22:38;;;;;;;7.38;5.20;;;;;;;18.72;57.83;98947.97;4971484;28;20526;-78
2022/08/01 00:25:05;;;;;;;9.43;5.35;;;;;;;18.54;57.72;98935.63;4954155;28;20071;-79
2022/08/01 00:27:31;;;;;;;8.27;5.20;;;;;;;18.58;58.00;98942.34;4939408;29;20051;-80
2022/08/01 00:29:57;;;;;;;5.45;4.70;;;;;;;18.65;58.08;98948.72;4955004;29;20483;-79
2022/08/01 00:32:23;;;;;;;9.73;4.72;;;;;;;18.60;58.31;98928.59;4955164;29;20573;-78
2022/08/01 00:34:49;;;;;;;5.07;4.53;;;;;;;18.73;57.92;98938.81;4955129;29;20482;-78
2022/08/01 00:37:15;;;;;;;8.63;4.32;;;;;;;18.81;57.70;98941.47;4955060;29;20047;-78
2022/08/01 00:39:41;;;;;;;7.90;5.43;;;;;;;18.86;57.63;98945.28;4956102;28;20562;-79
2022/08/01 00:42:11;;;;;;;6.50;5.05;;;;;;;18.83;57.80;98942.13;4954925;29;20074;-77
2022/08/01 00:44:37;;;;;;;8.68;4.53;;;;;;;18.91;57.47;98942.03;4954773;28;20408;-80
2022/08/01 00:47:04;;;;;;;6.55;4.70;;;;;;;19.04;57.21;98939.50;4971023;28;20106;-78
2022/08/01 00:49:30;;;;;;;5.22;4.55;;;;;;;19.20;56.97;98940.34;4954811;29;20047;-78
2022/08/01 00:51:58;;;;;;;7.78;5.22;;;;;;;19.39;56.52;98946.03;4970416;28;20461;-78
2022/08/01 00:54:25;;;;;;;8.68;5.10;;;;;;;19.45;56.05;98939.03;4954466;29;20387;-78
2022/08/01 00:56:52;;;;;;;7.72;4.53;;;;;;;19.53;55.84;98933.47;4956085;28;20534;-79
2022/08/01 00:59:18;;;;;;;10.43;5.28;;;;;;;19.62;55.71;98932.34;4955975;28;20059;-78
2022/08/01 01:01:44;;;;;;;7.38;4.85;;;;;;;19.79;55.25;98949.25;4955909;28;20039;-78
2022/08/01 01:04:10;;;;;;;5.13;4.45;;;;;;;19.81;55.16;98943.63;4954429;29;20047;-79
2022/08/01 01:06:39;;;;;;;7.53;4.55;;;;;;;19.92;55.18;98947.72;4934132;29;20107;-79
2022/08/01 01:09:14;;;;;;;7.40;5.05;;;;;;;20.00;54.73;98937.56;4934300;29;20096;-78
2022/08/01 01:11:53;;;;;;;6.90;4.72;;;;;;;20.07;54.77;98930.34;4934180;29;20052;-79
2022/08/01 01:14:32;;;;;;;8.88;5.22;;;;;;;20.02;54.50;98930.09;4934268;29;20048;-78
2022/08/01 01:17:00;;;;;;;7.47;4.88;;;;;;;19.97;54.71;98940.69;4934480;29;20463;-79
2022/08/01 01:19:30;;;;;;;8.60;5.10;;;;;;;19.95;54.77;98934.59;4918280;29;20103;-77
2022/08/01 01:22:23;;;;;;;8.88;5.55;;;;;;;20.06;54.71;98936.81;4934153;29;20150;-77
2022/08/01 01:25:09;;;;;;;8.25;4.88;;;;;;;20.14;54.26;98936.66;4934166;29;20046;-81
2022/08/01 01:27:56;;;;;;;7.45;5.90;;;;;;;20.31;54.32;98941.81;4918083;29;20138;-78
2022/08/01 01:30:25;;;;;;;9.63;5.18;;;;;;;20.29;54.18;98939.31;4934162;29;20065;-78
2022/08/01 01:32:52;;;;;;;9.00;5.03;;;;;;;20.27;54.26;98943.25;4933996;29;20047;-78
2022/08/01 01:35:25;;;;;;;9.20;5.18;;;;;;;20.28;54.46;98944.94;4933987;29;20073;-79
2022/08/01 01:37:57;;;;;;;11.52;4.80;;;;;;;20.38;54.20;98950.88;4954317;28;20048;-78
2022/08/01 01:40:25;;;;;;;21.58;5.90;;;;;;;20.37;53.71;98931.03;4969790;28;20047;-79
2022/08/01 01:42:55;;;;;;;7.57;5.30;;;;;;;20.61;53.33;98945.22;4969856;28;20090;-78
2022/08/01 01:45:23;;;;;;;7.97;4.95;;;;;;;20.61;53.48;98935.25;4937894;29;20483;-78
2022/08/01 01:47:52;;;;;;;11.32;4.93;;;;;;;20.78;53.25;98941.19;4969859;28;20134;-77
2022/08/01 01:50:21;;;;;;;9.45;4.93;;;;;;;20.77;52.69;98919.69;4937585;29;20035;-77
2022/08/01 01:52:48;;;;;;;10.85;5.78;;;;;;;20.83;53.12;98935.16;4954723;28;20560;-78
2022/08/01 01:55:15;;;;;;;10.60;5.35;;;;;;;20.98;53.03;98935.06;4954630;28;20079;-77
2022/08/01 01:57:43;;;;;;;10.55;5.53;;;;;;;21.10;52.54;98933.47;4953795;28;20058;-77
2022/08/01 02:00:12;;;;;;;11.40;5.30;;;;;;;21.26;52.36;98935.00;4969654;28;20043;-77
2022/08/01 02:02:38;;;;;;;;;;;;;;;21.41;52.01;98941.19;4938135;29;20043;-76
2022/08/01 02:05:07;;;;;;;10.30;5.45;;;;;;;21.53;51.66;98950.44;4969204;28;19972;-78
2022/08/01 02:07:34;;;;;;;15.70;5.43;;;;;;;21.70;51.76;98944.63;4937284;29;20051;-78
2022/08/01 02:10:02;;;;;;;14.20;5.43;;;;;;;21.86;51.33;98946.16;4954649;28;20055;-78
2022/08/01 02:12:34;;;;;;;12.00;5.57;;;;;;;22.04;51.12;98949.97;4954749;28;20399;-78
2022/08/01 02:15:01;;;;;;;13.38;6.07;;;;;;;22.15;50.96;98942.25;4953453;29;20043;-79
2022/08/01 02:17:30;;;;;;;14.23;5.15;;;;;;;22.14;51.04;98935.97;4953215;29;20043;-77
2022/08/01 02:19:56;;;;;;;11.38;5.72;;;;;;;22.21;51.09;98941.44;4953391;29;20102;-78
2022/08/01 02:22:30;;;;;;;11.00;5.60;;;;;;;22.30;50.48;98938.31;4969305;28;20466;-77
2022/08/01 02:25:02;;;;;;;14.75;5.85;;;;;;;22.41;50.27;98942.28;4952989;29;20047;-78
2022/08/01 02:27:50;;;;;;;11.77;6.05;;;;;;;22.50;50.06;98943.75;4969340;28;20039;-77
2022/08/01 02:30:17;;;;;;;13.53;6.30;;;;;;;22.40;50.67;98937.88;4953402;29;20082;-77
2022/08/01 02:32:44;;;;;;;18.42;7.82;;;;;;;22.44;50.74;98949.19;4953168;29;20550;-78
2022/08/01 02:35:15;;;;;;;20.23;7.10;;;;;;;22.41;50.12;98952.34;4953147;29;20499;-78
2022/08/01 02:37:42;;;;;;;26.45;7.53;;;;;;;22.46;50.21;98961.56;4953401;29;20067;-82
2022/08/01 02:40:11;;;;;;;15.13;7.43;;;;;;;22.47;50.18;98952.34;4969108;28;20447;-79
2022/08/01 02:42:38;;;;;;;;;;;;;;;22.48;49.98;98959.47;4954152;28;20051;-79
2022/08/01 02:45:08;;;;;;;20.13;11.20;;;;;;;22.52;49.91;98960.72;4954168;28;20033;-78
2022/08/01 02:47:35;;;;;;;17.17;9.32;;;;;;;22.49;50.23;98961.16;4953040;29;20046;-77
2022/08/01 02:50:02;;;;;;;27.92;10.70;;;;;;;22.57;49.71;98951.09;4957045;28;20078;-91
2022/08/01 02:52:31;;;;;;;27.48;13.27;;;;;;;22.52;49.53;98958.00;4957035;28;20051;-78
2022/08/01 02:54:58;;;;;;;29.50;15.10;;;;;;;22.43;49.55;98945.66;4958025;28;20109;-92
2022/08/01 02:57:25;;;;;;;29.23;14.95;;;;;;;22.42;50.22;98951.31;4956983;29;20551;-79
2022/08/01 02:59:53;;;;;;;25.30;14.52;;;;;;;22.62;50.01;98956.75;4957943;28;20047;-82
2022/08/01 03:02:21;;;;;;;18.83;14.03;;;;;;;22.67;49.78;98954.22;4958319;28;20134;-78
2022/08/01 03:04:48;;;;;;;21.45;13.80;;;;;;;22.73;49.93;98953.41;4956976;29;20077;-82
2022/08/01 03:07:16;;;;;;;29.85;14.35;;;;;;;22.70;49.62;98951.94;4972364;28;20051;-79
2022/08/01 03:09:44;;;;;;;24.55;14.13;;;;;;;22.82;49.39;98960.28;4956368;29;20047;-77
2022/08/01 03:12:17;;;;;;;21.13;12.43;;;;;;;22.91;49.36;98937.28;4956600;29;20078;-79
2022/08/01 03:14:46;;;;;;;24.88;12.48;;;;;;;23.06;49.04;98949.84;4956835;29;20058;-78
2022/08/01 03:17:12;;;;;;;33.72;12.32;;;;;;;23.18;48.63;98953.56;4956293;29;20115;-78
2022/08/01 03:19:39;;;;;;;15.02;11.32;;;;;;;23.36;48.49;98953.72;4957775;28;20074;-79
2022/08/01 03:22:11;;;;;;;26.73;11.52;;;;;;;23.54;48.78;98953.00;4957534;28;20057;-77
2022/08/01 03:24:40;;;;;;;20.83;9.85;;;;;;;23.60;48.79;98934.97;4957469;28;20086;-79
2022/08/01 03:27:07;;;;;;;25.80;9.70;;;;;;;23.79;49.09;98949.59;4955900;29;20145;-80
2022/08/01 03:29:34;;;;;;;21.10;9.82;;;;;;;23.86;48.51;98948.50;4939927;29;20539;-79
2022/08/01 03:32:01;;;;;;;24.42;9.52;;;;;;;23.96;48.76;98946.16;4963875;28;20513;-78
2022/08/01 03:34:27;;;;;;;16.58;9.05;;;;;;;24.12;48.73;98954.88;4976523;28;20047;-81
2022/08/01 03:37:20;;;;;;;21.52;9.25;;;;;;;24.17;48.88;98946.84;4975373;28;20508;-79
2022/08/01 03:39:55;;;;;;;26.20;8.77;;;;;;;24.30;48.80;98940.44;4974986;28;20502;-81
2022/08/01 03:42:28;;;;;;;10.18;7.38;;;;;;;24.38;48.65;98938.28;4958732;28;20039;-77
2022/08/01 03:44:59;;;;;;;20.27;8.00;;;;;;;24.34;48.77;98926.13;4976009;28;20078;-76
2022/08/01 03:47:31;;;;;;;33.47;7.95;;;;;;;24.49;48.63;98934.03;4975117;28;20038;-77
2022/08/01 03:49:58;;;;;;;22.02;8.40;;;;;;;24.51;48.54;98942.00;4974895;28;20439;-78
2022/08/01 03:52:27;;;;;;;24.10;8.13;;;;;;;24.51;48.47;98942.84;4976049;28;20050;-77
2022/08/01 03:54:55;;;;;;;15.15;7.57;;;;;;;24.48;48.03;98932.34;4958843;28;20062;-78
2022/08/01 03:57:23;;;;;;;27.77;7.95;;;;;;;24.71;48.01;98946.25;4974658;28;20039;-86
2022/08/01 03:59:49;;;;;;;30.87;8.57;;;;;;;24.80;47.61;98952.25;4975024;28;20101;-78
2022/08/01 04:02:16;;;;;;;38.30;8.70;;;;;;;24.67;47.42;98947.75;4976068;28;20448;-79
2022/08/01 04:04:42;;;;;;;20.80;7.72;;;;;;;24.58;47.93;98948.25;4990812;28;20082;-80
2022/08/01 04:07:29;;;;;;;13.50;6.80;;;;;;;24.61;47.89;98964.22;4957496;28;20039;-80
2022/08/01 04:09:55;;;;;;;17.67;6.85;;;;;;;24.81;47.09;98964.03;4974593;28;20043;-80
2022/08/01 04:12:21;;;;;;;14.88;6.47;;;;;;;24.75;46.39;98965.78;4991016;28;20050;-79
2022/08/01 04:14:48;;;;;;;17.27;6.20;;;;;;;24.80;46.43;98955.00;4975536;28;20105;-80
2022/08/01 04:17:15;;;;;;;25.90;6.88;;;;;;;25.14;45.98;98959.09;4975804;28;20043;-80
2022/08/01 04:19:45;;;;;;;18.75;6.65;;;;;;;25.34;45.89;98950.69;4990147;28;20046;-80
2022/08/01 04:22:13;;;;;;;16.07;6.40;;;;;;;25.53;45.57;98961.63;4974408;28;20177;-79
2022/08/01 04:24:41;;;;;;;26.67;5.97;;;;;;;25.72;45.31;98955.06;4958129;28;20047;-79
2022/08/01 04:27:13;;;;;;;20.20;5.87;;;;;;;26.01;44.76;98958.91;4975662;28;20503;-80
2022/08/01 04:29:40;;;;;;;12.30;5.88;;;;;;;26.19;44.27;98963.50;4974578;28;20286;-81
2022/08/01 04:32:11;;;;;;;16.70;6.45;;;;;;;26.03;44.27;98955.97;4990461;28;20051;-80
2022/08/01 04:34:39;;;;;;;8.40;5.57;;;;;;;26.21;44.06;98955.88;4974280;28;20497;-79
2022/08/01 04:37:09;;;;;;;13.45;5.30;;;;;;;26.19;43.93;98955.28;4941916;28;20062;-81
2022/08/01 04:39:39;;;;;;;8.75;5.50;;;;;;;25.99;44.73;98954.72;4975374;28;20089;-79
2022/08/01 04:42:06;;;;;;;8.70;5.65;;;;;;;26.07;44.75;98946.22;4975329;28;20054;-78
2022/08/01 04:44:33;;;;;;;11.45;5.22;;;;;;;26.04;44.76;98944.75;4973688;28;20462;-78
2022/08/01 04:47:04;;;;;;;10.68;5.15;;;;;;;26.19;45.00;98948.97;4974112;28;20054;-78
2022/08/01 04:49:31;;;;;;;6.93;5.80;;;;;;;26.28;44.75;98948.41;4990112;28;20068;-78
2022/08/01 04:52:00;;;;;;;7.72;4.72;;;;;;;26.29;44.43;98944.63;4957714;28;20039;-78
2022/08/01 04:54:27;;;;;;;12.02;5.63;;;;;;;26.44;44.29;98941.44;4973933;28;20145;-80
2022/08/01 04:56:59;;;;;;;12.80;5.28;;;;;;;26.49;44.25;98946.22;4957797;28;20065;-79
2022/08/01 04:59:43;;;;;;;10.60;5.35;;;;;;;26.52;44.59;98943.03;4973687;28;20043;-80
2022/08/01 05:02:18;;;;;;;9.68;5.00;;;;;;;26.77;43.03;98940.88;4973584;28;20433;-80
2022/08/01 05:04:45;;;;;;;14.63;5.43;;;;;;;26.75;43.04;98948.53;4973633;28;20047;-79
2022/08/01 05:07:12;;;;;;;9.38;5.00;;;;;;;26.66;43.18;98949.94;4975065;28;20046;-79
2022/08/01 05:09:45;;;;;;;11.68;5.35;;;;;;;26.97;42.54;98947.91;4957315;28;20049;-79
2022/08/01 05:12:12;;;;;;;5.90;4.88;;;;;;;27.13;42.11;98944.50;4956878;28;20051;-80
2022/08/01 05:14:38;;;;;;;12.52;5.47;;;;;;;27.00;42.51;98925.50;4957228;28;20053;-79
2022/08/01 05:17:06;;;;;;;6.88;5.10;;;;;;;27.02;43.31;98942.56;4973069;28;20035;-81
2022/08/01 05:19:33;;;;;;;9.70;5.28;;;;;;;26.98;43.41;98933.97;4974652;28;20042;-80
2022/08/01 05:22:01;;;;;;;6.03;5.20;;;;;;;27.21;43.68;98941.38;4989717;28;20046;-80
2022/08/01 05:24:28;;;;;;;20.35;5.70;;;;;;;27.53;42.77;98916.25;4973257;28;20043;-79
2022/08/01 05:26:55;;;;;;;9.35;5.40;;;;;;;27.89;42.31;98936.22;4974426;28;20050;-80
2022/08/01 05:29:21;;;;;;;8.25;5.22;;;;;;;28.23;41.09;98926.97;4973677;28;20096;-79
2022/08/01 05:31:46;;;;;;;18.38;5.05;;;;;;;27.97;39.72;98919.34;4988757;28;20530;-79
2022/08/01 05:34:12;;;;;;;8.68;5.03;;;;;;;28.09;40.63;98936.59;4956243;28;20066;-79
2022/08/01 05:36:38;;;;;;;18.98;5.70;;;;;;;28.43;39.70;98932.00;4973629;28;20043;-79
2022/08/01 05:39:04;;;;;;;9.43;5.20;;;;;;;28.21;39.82;98933.78;4988457;28;20062;-79
2022/08/01 05:41:33;;;;;;;9.60;5.43;;;;;;;28.54;38.68;98933.84;4956066;28;20039;-81
2022/08/01 05:43:59;;;;;;;7.82;5.05;;;;;;;28.94;37.01;98937.50;4973189;28;20050;-82
2022/08/01 05:46:25;;;;;;;6.80;4.63;;;;;;;28.75;34.63;98940.53;4972024;28;20466;-79
2022/08/01 05:48:51;;;;;;;8.48;4.13;;;;;;;28.88;34.98;98933.00;4988233;28;20141;-81
2022/08/01 05:51:17;;;;;;;7.68;4.00;;;;;;;29.16;34.37;98935.66;4971949;28;20085;-79
2022/08/01 05:53:42;;;;;;;7.82;4.85;;;;;;;29.25;34.88;98933.28;4973381;28;20256;-81
2022/08/01 05:56:09;;;;;;;16.33;4.82;;;;;;;29.43;33.98;98927.47;4972149;28;20054;-81
2022/08/01 05:58:35;;;;;;;5.43;4.30;;;;;;;29.53;33.73;98932.31;4973332;28;20047;-81
2022/08/01 06:01:01;;;;;;;8.52;4.85;;;;;;;29.48;33.61;98922.03;4972065;28;20046;-80
2022/08/01 06:03:30;;;;;;;6.13;4.68;;;;;;;29.17;34.36;98933.75;4971574;28;20054;-81
2022/08/01 06:05:57;;;;;;;6.60;4.85;;;;;;;28.64;35.34;98933.19;4971967;28;20494;-80
2022/08/01 06:08:23;;;;;;;12.05;4.68;;;;;;;28.70;35.40;98940.44;4973244;28;20043;-81
2022/08/01 06:10:49;;;;;;;8.35;4.95;;;;;;;28.50;35.93;98945.59;4971795;28;20043;-82
2022/08/01 06:13:14;;;;;;;10.60;5.90;;;;;;;28.63;36.07;98931.53;4955703;28;20153;-81
2022/08/01 06:15:40;;;;;;;8.85;4.45;;;;;;;28.90;35.55;98931.66;4973167;28;20077;-81
2022/08/01 06:18:06;;;;;;;8.52;4.55;;;;;;;28.88;35.82;98930.25;4955786;28;20082;-81
2022/08/01 06:20:32;;;;;;;6.53;4.50;;;;;;;28.78;37.52;98934.53;4971640;28;20049;-81
2022/08/01 06:22:58;;;;;;;14.65;4.45;;;;;;;28.66;37.28;98920.03;4972373;28;20054;-81
2022/08/01 06:25:24;;;;;;;5.07;4.50;;;;;;;28.40;37.71;98923.41;4971248;28;20409;-80
2022/08/01 06:27:50;;;;;;;10.85;4.47;;;;;;;28.33;37.51;98927.16;4971779;28;20042;-81
2022/08/01 06:30:15;;;;;;;5.75;4.60;;;;;;;28.53;37.27;98937.69;4911625;28;1272901;-80
2022/08/01 06:32:41;;;;;;;11.75;4.82;;;;;;;28.45;37.40;98929.03;4975905;28;20576;-82
2022/08/01 06:35:08;;;;;;;9.50;4.97;;;;;;;28.46;37.24;98916.94;4956191;28;20087;-81
2022/08/01 06:37:33;;;;;;;8.90;4.70;;;;;;;28.66;36.83;98920.03;4973647;28;20089;-80
2022/08/01 06:40:07;;;;;;;8.30;4.57;;;;;;;28.65;36.60;98923.84;4988808;28;20042;-80
2022/08/01 06:42:37;;;;;;;12.25;4.80;;;;;;;28.85;36.41;98917.00;4971839;28;20072;-81
2022/08/01 06:45:03;;;;;;;5.32;4.55;;;;;;;29.16;35.86;98916.41;4973212;28;20047;-81
2022/08/01 06:47:30;;;;;;;8.80;4.97;;;;;;;29.28;35.57;98899.75;4955984;28;20051;-80
2022/08/01 06:49:55;;;;;;;8.43;4.32;;;;;;;29.28;35.08;98911.59;4972083;28;20047;-81
2022/08/01 06:52:21;;;;;;;6.15;4.82;;;;;;;29.33;35.38;98907.25;4972476;28;20054;-80
2022/08/01 06:54:47;;;;;;;10.93;4.80;;;;;;;29.19;35.98;98915.91;4988402;28;20042;-81
2022/08/01 06:57:12;;;;;;;9.13;5.00;;;;;;;29.11;36.19;98905.31;4973101;28;20065;-80
2022/08/01 06:59:38;;;;;;;6.97;4.30;;;;;;;29.28;35.80;98906.09;4973598;28;20050;-81
2022/08/01 07:02:04;;;;;;;9.85;4.75;;;;;;;29.10;35.74;98900.88;4973477;28;20038;-81
2022/08/01 07:04:30;;;;;;;10.93;4.65;;;;;;;28.75;36.99;98909.44;4971917;28;20051;-81
2022/08/01 07:06:56;;;;;;;10.30;4.97;;;;;;;28.45;37.71;98896.88;4971714;28;20047;-79
2022/08/01 07:09:22;;;;;;;7.38;4.50;;;;;;;28.52;37.51;98902.19;4971540;28;20495;-79
2022/08/01 07:11:48;;;;;;;10.52;4.45;;;;;;;28.62;35.70;98891.34;4972734;28;20047;-80
2022/08/01 07:14:14;;;;;;;5.88;5.20;;;;;;;28.78;35.18;98885.00;4988243;28;20057;-80
2022/08/01 07:16:40;;;;;;;8.48;4.63;;;;;;;28.92;34.73;98907.47;4971872;28;20039;-81
2022/08/01 07:19:05;;;;;;;10.13;4.78;;;;;;;29.07;34.53;98882.13;4939835;28;20046;-81
2022/08/01 07:21:31;;;;;;;5.72;4.63;;;;;;;29.46;34.38;98879.34;4971726;28;20110;-82
2022/08/01 07:23:57;;;;;;;4.97;4.50;;;;;;;29.82;33.63;98888.84;4971737;28;20652;-81
2022/08/01 07:26:23;;;;;;;5.07;4.00;;;;;;;29.77;32.37;98881.38;4987807;28;20077;-80
2022/08/01 07:28:49;;;;;;;6.10;3.95;;;;;;;29.47;32.49;98894.75;4971782;28;20425;-80
2022/08/01 07:31:15;;;;;;;5.75;4.28;;;;;;;29.42;32.25;98894.72;4972350;28;20109;-80
2022/08/01 07:33:40;;;;;;;5.47;4.60;;;;;;;29.35;32.91;98867.38;4972942;28;20516;-81
2022/08/01 07:36:07;;;;;;;9.55;4.32;;;;;;;29.52;32.67;98868.09;4957989;28;20069;-80
2022/08/01 07:38:32;;;;;;;8.13;4.70;;;;;;;29.71;32.42;98863.13;4975660;28;20541;-80
2022/08/01 07:40:58;;;;;;;4.85;4.38;;;;;;;30.29;31.79;98874.47;4959389;28;20043;-80
2022/08/01 07:43:24;;;;;;;8.07;4.35;;;;;;;30.22;31.18;98869.16;4976239;28;20125;-80
2022/08/01 07:45:50;;;;;;;5.38;4.30;;;;;;;29.82;31.31;98855.78;4974862;28;20070;-80
2022/08/01 07:48:16;;;;;;;7.72;4.95;;;;;;;29.46;32.15;98851.81;4975060;28;20042;-78
2022/08/01 07:50:41;;;;;;;8.70;4.60;;;;;;;29.56;32.18;98862.91;4990714;28;20502;-79
2022/08/01 07:53:09;;;;;;;13.82;4.70;;;;;;;30.26;31.87;98860.38;4958209;28;20041;-81
2022/08/01 07:55:35;;;;;;;17.48;4.95;;;;;;;30.72;30.36;98854.09;4974803;28;20050;-79
2022/08/01 07:58:01;;;;;;;6.50;4.43;;;;;;;31.10;29.98;98848.53;4976073;28;20045;-80
2022/08/01 08:00:28;;;;;;;4.85;4.43;;;;;;;31.29;29.65;98846.94;4975952;28;20047;-79
2022/08/01 08:02:59;;;;;;;6.75;4.50;;;;;;;31.59;28.94;98856.47;4974842;28;20105;-80
2022/08/01 08:05:28;;;;;;;8.05;4.18;;;;;;;31.47;28.39;98848.44;4974624;28;20039;-81
2022/08/01 08:07:54;;;;;;;8.63;4.60;;;;;;;31.55;28.73;98850.66;4974850;28;20043;-79
2022/08/01 08:10:19;;;;;;;9.85;4.07;;;;;;;31.83;28.73;98831.94;4974319;28;20105;-78
2022/08/01 08:12:46;;;;;;;8.80;4.28;;;;;;;31.70;29.01;98808.44;4975623;28;20042;-80
2022/08/01 08:15:12;;;;;;;87.47;8.57;;;;;;;31.92;28.65;98835.84;4975692;28;20054;-80
2022/08/01 08:17:39;;;;;;;5.38;3.70;;;;;;;31.37;28.04;98845.66;4974355;28;20133;-80
2022/08/01 08:20:06;;;;;;;8.30;3.95;;;;;;;31.10;28.25;98860.41;4974561;28;20113;-79
2022/08/01 08:22:34;;;;;;;6.15;3.97;;;;;;;30.44;28.70;98840.66;4942569;28;20177;-79
2022/08/01 08:25:00;;;;;;;5.97;4.47;;;;;;;30.34;29.58;98843.34;4958462;28;20042;-81
2022/08/01 08:27:26;;;;;;;7.50;4.22;;;;;;;30.65;29.58;98842.44;4990462;28;20525;-79
2022/08/01 08:29:52;;;;;;;4.50;4.10;;;;;;;30.73;28.63;98839.22;4957981;28;20062;-79
2022/08/01 08:32:18;;;;;;;8.13;3.97;;;;;;;30.88;28.48;98841.25;4958180;28;20046;-80
2022/08/01 08:34:44;;;;;;;11.35;4.28;;;;;;;30.96;27.96;98848.19;4974244;28;20065;-80
2022/08/01 08:37:10;;;;;;;8.05;4.13;;;;;;;31.24;26.18;98832.31;4974197;28;20054;-79
2022/08/01 08:39:36;;;;;;;4.45;4.05;;;;;;;31.67;26.09;98834.69;4975475;28;20502;-79
2022/08/01 08:42:06;;;;;;;6.75;4.20;;;;;;;31.94;26.59;98836.41;4975519;28;20042;-79
2022/08/01 08:44:33;;;;;;;4.68;3.97;;;;;;;32.33;26.63;98833.09;4975224;28;20101;-79
2022/08/01 08:47:04;;;;;;;6.63;4.05;;;;;;;32.76;26.33;98806.78;4974184;28;20507;-79
2022/08/01 08:49:36;;;;;;;6.32;4.00;;;;;;;33.18;25.69;98813.03;4958078;28;20065;-79
2022/08/01 08:52:04;;;;;;;8.77;4.60;;;;;;;32.67;27.36;98815.94;4973765;28;20042;-79
2022/08/01 08:54:31;;;;;;;7.47;4.32;;;;;;;31.83;28.83;98812.59;4957524;28;20137;-80
2022/08/01 08:56:58;;;;;;;6.25;4.75;;;;;;;31.12;29.95;98821.50;4941935;28;20043;-80
2022/08/01 08:59:25;;;;;;;6.10;4.57;;;;;;;30.84;30.43;98823.59;4957696;28;20070;-79
2022/08/01 09:01:50;;;;;;;9.30;4.68;;;;;;;30.65;30.63;98825.06;4973792;28;20043;-80
2022/08/01 09:04:17;;;;;;;10.45;4.63;;;;;;;30.35;30.92;98831.19;4974794;28;20058;-80
2022/08/01 09:06:43;;;;;;;13.30;5.05;;;;;;;30.17;31.21;98833.28;4973737;28;20042;-79
2022/08/01 09:09:09;;;;;;;8.52;4.90;;;;;;;29.97;31.53;98820.13;4957105;28;20054;-81
2022/08/01 09:11:36;;;;;;;9.13;4.70;;;;;;;29.97;31.15;98828.38;4957477;28;20054;-79
2022/08/01 09:14:11;;;;;;;8.32;4.47;;;;;;;29.85;31.20;98822.22;4974507;28;20402;-80
2022/08/01 09:16:41;;;;;;;8.27;4.75;;;;;;;29.90;31.40;98840.72;4974913;28;20039;-79
2022/08/01 09:19:19;;;;;;;11.68;4.80;;;;;;;29.62;32.80;98845.41;4957299;28;20062;-78
2022/08/01 09:21:57;;;;;;;5.95;4.53;;;;;;;29.16;33.76;98846.75;4973255;28;20046;-78
2022/08/01 09:24:26;;;;;;;6.57;4.68;;;;;;;29.43;33.59;98833.03;4956948;28;20034;-79
2022/08/01 09:26:52;;;;;;;;;;;;;;;29.79;33.57;98827.94;4975352;28;20185;-79
2022/08/01 09:29:24;;;;;;;11.20;4.70;;;;;;;30.50;32.99;98828.56;4973568;28;19925;-79
2022/08/01 09:31:51;;;;;;;11.63;4.60;;;;;;;31.45;31.47;98834.09;4989416;28;20524;-81
2022/08/01 09:34:27;;;;;;;4.77;4.37;;;;;;;31.41;29.19;98824.69;4956836;28;20057;-79
2022/08/01 09:36:55;;;;;;;8.20;4.50;;;;;;;31.04;28.21;98833.88;4973125;28;20043;-80
2022/08/01 09:39:33;;;;;;;7.18;4.57;;;;;;;30.43;28.72;98825.22;4973134;28;20051;-80
2022/08/01 09:42:01;;;;;;;7.90;4.20;;;;;;;30.73;29.04;98836.44;4974687;28;20125;-80
2022/08/01 09:44:39;;;;;;;8.55;4.63;;;;;;;31.38;28.26;98820.53;4941120;28;20046;-79
2022/08/01 09:47:05;;;;;;;10.03;4.30;;;;;;;31.90;27.10;98829.78;4972895;28;20565;-79
2022/08/01 09:49:36;;;;;;;6.80;4.28;;;;;;;32.10;25.89;98823.44;4974137;28;20380;-78
2022/08/01 09:52:32;;;;;;;10.60;4.20;;;;;;;31.88;25.82;98821.75;4974216;28;20042;-80
2022/08/01 09:54:59;;;;;;;7.65;4.43;;;;;;;32.03;25.60;98829.22;4940441;28;20074;-79
2022/08/01 09:57:26;;;;;;;5.03;4.20;;;;;;;32.32;25.08;98814.84;4973864;28;20409;-80
2022/08/01 09:59:55;;;;;;;5.13;3.97;;;;;;;32.73;25.50;98831.44;4974025;28;20050;-79
2022/08/01 10:02:27;;;;;;;8.32;4.95;;;;;;;32.76;26.61;98841.91;4974205;28;20050;-80
2022/08/01 10:04:54;;;;;;;5.93;5.35;;;;;;;31.78;30.10;98843.81;4972501;28;20050;-81
2022/08/01 10:07:21;;;;;;;10.73;5.60;;;;;;;31.54;30.93;98829.66;4972771;28;20050;-79
2022/08/01 10:09:48;;;;;;;10.18;5.70;;;;;;;31.56;31.24;98833.00;4973669;28;20133;-80
2022/08/01 10:12:16;;;;;;;15.07;6.10;;;;;;;31.44;31.35;98827.72;4972256;28;20053;-81
2022/08/01 10:14:44;;;;;;;22.13;5.47;;;;;;;31.82;30.70;98819.22;4940246;28;20153;-80
2022/08/01 10:17:13;;;;;;;14.98;5.13;;;;;;;32.04;30.77;98830.88;4956402;28;20533;-80
2022/08/01 10:19:41;;;;;;;10.70;5.30;;;;;;;32.47;30.14;98834.25;4973406;28;20043;-82
2022/08/01 10:22:08;;;;;;;8.98;5.20;;;;;;;32.62;30.06;98841.69;4924671;28;20124;-81
2022/08/01 10:24:38;;;;;;;14.85;5.18;;;;;;;32.16;30.36;98844.47;4972605;28;20134;-82
2022/08/01 10:27:06;;;;;;;8.52;5.13;;;;;;;31.59;31.53;98851.78;4973712;28;20065;-80
2022/08/01 10:30:09;;;;;;;10.20;5.13;;;;;;;31.04;31.59;98844.09;4972351;28;20050;-81
2022/08/01 10:32:35;;;;;;;13.65;5.78;;;;;;;31.63;30.36;98857.59;4898406;29;20062;-80
2022/08/01 10:35:04;;;;;;;10.48;5.10;;;;;;;31.36;30.97;98835.69;4957283;28;20145;-79
2022/08/01 10:37:30;;;;;;;10.13;5.45;;;;;;;31.06;31.28;98820.63;4955900;28;20047;-80
2022/08/01 10:39:57;;;;;;;9.98;6.03;;;;;;;30.63;32.48;98817.06;4988483;28;20133;-80
2022/08/01 10:42:23;;;;;;;9.38;4.93;;;;;;;30.19;32.17;98828.31;4972097;28;20478;-80
2022/08/01 10:44:49;;;;;;;8.95;5.38;;;;;;;29.78;32.92;98827.09;4973351;28;20101;-80
2022/08/01 10:47:40;;;;;;;11.60;5.43;;;;;;;30.39;32.00;98846.13;4972454;28;20166;-80
2022/08/01 10:50:25;;;;;;;10.57;4.80;;;;;;;31.03;31.50;98831.38;4956457;28;20046;-80
2022/08/01 10:53:12;;;;;;;12.30;6.05;;;;;;;30.76;33.06;98854.41;4942250;28;20039;-79
2022/08/01 10:55:56;;;;;;;16.40;6.05;;;;;;;31.50;33.84;98867.22;4973688;28;20057;-81
2022/08/01 10:58:28;;;;;;;13.10;6.10;;;;;;;31.28;34.38;98863.81;4988606;28;20050;-80
2022/08/01 11:01:19;;;;;;;11.07;5.30;;;;;;;31.47;33.25;98876.06;4974152;28;20058;-78
2022/08/01 11:03:57;;;;;;;6.43;5.60;;;;;;;32.22;33.88;98876.53;4973983;28;20490;-79
2022/08/01 11:06:35;;;;;;;8.98;6.15;;;;;;;32.91;33.73;98871.50;4956443;28;20075;-79
2022/08/01 11:09:11;;;;;;;10.75;6.40;;;;;;;33.69;32.60;98877.34;4957416;28;20153;-79
2022/08/01 11:12:03;;;;;;;17.98;6.70;;;;;;;33.80;33.26;98869.81;4959802;28;20418;-78
2022/08/01 11:14:29;;;;;;;15.07;7.15;;;;;;;33.19;35.07;98862.59;4959696;28;20078;-79
2022/08/01 11:16:56;;;;;;;15.65;7.47;;;;;;;32.52;35.89;98858.28;4975236;28;20517;-79
2022/08/01 11:19:22;;;;;;;14.45;7.15;;;;;;;32.73;34.79;98876.53;4975380;28;20043;-79
2022/08/01 11:21:54;;;;;;;11.55;7.30;;;;;;;33.44;34.05;98863.59;4976827;28;20073;-79
2022/08/01 11:24:48;;;;;;;9.77;5.82;;;;;;;34.56;32.01;98868.44;4943231;28;20533;-79
2022/08/01 11:27:29;;;;;;;10.02;6.03;;;;;;;35.10;30.67;98864.59;4975413;28;20395;-79
2022/08/01 11:30:10;;;;;;;12.70;6.40;;;;;;;35.10;29.62;98855.44;4977026;28;20409;-79
2022/08/01 11:32:57;;;;;;;14.23;6.20;;;;;;;34.85;29.68;98862.91;4943780;28;20133;-79
2022/08/01 11:35:26;;;;;;;7.77;6.47;;;;;;;33.81;31.18;98858.47;4975362;28;20057;-79
2022/08/01 11:37:56;;;;;;;13.05;5.72;;;;;;;33.54;32.00;98864.41;4975079;28;20534;-79